KPAO

Palo Alto Airport

Palo Alto, California, USA
METAR KPAO 210347Z 24003KT 8SM HZ SCT200 17/13 A2991 RMK LAST
Observed Flight Rules
Aug-21 @ 03:47 UTC (10 hours ago) Visual Flight Rules
Wind Visibility Clouds Conditions
240° at 3 knots 8 miles
  • Scattered at 20,000' AGL
  • Haze
Temperatures Readings
Current 17°C / 63°F
Dewpoint 13°C / 55°F
Humidity 77%
Altimeter 29.91" Hg
Pressure 1013 hPa
Elevation 2
METAR KPAO 210347Z 24003KT 8SM HZ SCT200 17/13 A2991 RMK LAST
Observed Flight Rules
Aug-21 @ 03:47 UTC
(10 hours ago)
VFR
Wind Visibility
240° at 3 knots 8 miles
Clouds
  • Scattered at 20,000' AGL
Conditions
  • Haze
Temperature Dewpoint
17°C / 63°F 13°C / 55°F
Humidity Altimeter Pressure
77% 29.91" Hg 1013 hPa